Hauptseite
METAR-TAF:

METAR-TAF

Flughäfen :

Flughafen Nürnberg

Nürnberg, Deutschland

Breite: 49-30N, Länge: 011-03E, Höhe: 318 m

Beobachtung

Neuester Wetterbericht von vor 18 Minuten, um 23:50 UTC
Wind 7 kt aus Südost
Temperatur 4°C
Luftfeuchtigkeit 87%
Luftdruck 1003 hPa
Sichtweite 10 km oder mehr
Durchbrochene Bewölkung in der Höhe von 4000 ft

METAR: EDDN 122350Z 13007KT 9999 BKN040 04/02 Q1003

Zeit: 01:08 (00:08 UTC)

Prognose

Neuester Wetterbericht von vor 1 Stunde und 8 Minuten, um 23:00 UTC
Gültige Prognose vom 13 um 00 UTC bis 13 um 24 UTC
Wind 4 kt aus Ost/Südost
Sichtweite 10 km oder mehr
keine Wolken unter 1500 m und keine Kumulonimbus oder Gewitterwolken
Übergehend zu
vom 13 um 01 UTC bis 13 um 02 UTC
Wind 5 kt aus Südwest

TAF: EDDN 122300Z 1300/1324 12004KT CAVOK BECMG 1301/1302 23005KT

Wetterbeobachtungen und Prognosen von mehr als 4000 Flughäfen (METAR und TAF Bericht).

Die verfügbaren Stationen werden durch gelbe und rote Markierungen auf der Karte dargestellt.

Führen Sie die Maus auf sie, um den Namen der Station zu sehen.

Darauf klicken, um die Beobachtung von Wetterbeobachtungen und Prognosen zu sehen.

Um die Karte zu ändern : klicken Sie auf den grünen Tasten mit einem schwarzen Kreuz Zum Vergrößern, auf den grünen Button mit einem Gedankenstrich zu verkleinern, oder auf die grünen Pfeile für benachbarte Karten.


METAR-TAF: